createdAt,value
2022-12-25T00:00:56.353Z,9.70
2022-12-25T00:03:23.394Z,9.70
2022-12-25T00:05:50.228Z,9.60
2022-12-25T00:08:16.903Z,9.70
2022-12-25T00:10:45.474Z,9.70
2022-12-25T00:13:12.629Z,9.70
2022-12-25T00:15:41.710Z,9.70
2022-12-25T00:18:08.657Z,9.70
2022-12-25T00:20:35.723Z,9.70
2022-12-25T00:23:02.496Z,9.70
2022-12-25T00:25:29.289Z,9.70
2022-12-25T00:27:55.977Z,9.70
2022-12-25T00:30:22.719Z,9.60
2022-12-25T00:32:49.546Z,9.60
2022-12-25T00:35:16.308Z,9.70
2022-12-25T00:37:43.106Z,9.60
2022-12-25T00:40:10.310Z,9.60
2022-12-25T00:42:37.034Z,9.60
2022-12-25T00:45:05.782Z,9.60
2022-12-25T00:47:32.574Z,9.60
2022-12-25T00:49:59.363Z,9.60
2022-12-25T00:52:26.082Z,9.60
2022-12-25T00:54:52.819Z,9.70
2022-12-25T00:57:19.803Z,9.70
2022-12-25T00:59:46.568Z,9.80
2022-12-25T01:02:25.872Z,9.80
2022-12-25T01:04:55.425Z,9.80
2022-12-25T01:07:24.388Z,9.80
2022-12-25T01:10:10.169Z,9.90
2022-12-25T01:12:40.173Z,9.90
2022-12-25T01:15:08.809Z,9.90
2022-12-25T01:17:35.734Z,9.90
2022-12-25T01:20:02.889Z,9.90
2022-12-25T01:22:29.808Z,9.90
2022-12-25T01:24:56.529Z,9.90
2022-12-25T01:27:23.324Z,9.80
2022-12-25T01:29:50.036Z,9.90
2022-12-25T01:32:16.786Z,9.90
2022-12-25T01:34:43.545Z,9.90
2022-12-25T01:37:11.054Z,9.90
2022-12-25T01:39:37.901Z,9.90
2022-12-25T01:42:04.620Z,9.90
2022-12-25T01:44:37.201Z,9.90
2022-12-25T01:47:05.296Z,9.90
2022-12-25T01:49:35.015Z,9.90
2022-12-25T01:52:24.394Z,9.90
2022-12-25T01:55:03.923Z,9.90
2022-12-25T01:57:34.520Z,9.90
2022-12-25T02:00:02.062Z,9.90
2022-12-25T02:02:29.605Z,10.00
2022-12-25T02:05:12.195Z,10.00
2022-12-25T02:07:41.360Z,10.00
2022-12-25T02:10:12.045Z,10.00
2022-12-25T02:12:39.387Z,10.10
2022-12-25T02:15:11.074Z,10.10
2022-12-25T02:18:11.317Z,10.10
2022-12-25T02:20:52.994Z,10.20
2022-12-25T02:23:37.649Z,10.20
2022-12-25T02:26:38.400Z,10.30
2022-12-25T02:29:11.709Z,10.20
2022-12-25T02:32:02.724Z,10.20
2022-12-25T02:34:52.031Z,10.20
2022-12-25T02:37:36.539Z,10.20
2022-12-25T02:40:12.373Z,10.30
2022-12-25T02:43:13.831Z,10.30
2022-12-25T02:46:21.593Z,10.40
2022-12-25T02:49:12.236Z,10.30
2022-12-25T02:52:21.371Z,10.40
2022-12-25T02:55:16.617Z,10.40
2022-12-25T02:58:09.360Z,10.40
2022-12-25T03:01:00.017Z,10.40
2022-12-25T03:03:49.583Z,10.40
2022-12-25T03:06:36.982Z,10.40
2022-12-25T03:09:44.335Z,10.50
2022-12-25T03:12:49.982Z,10.50
2022-12-25T03:15:37.935Z,10.40
2022-12-25T03:18:10.039Z,10.40
2022-12-25T03:20:56.418Z,10.50
2022-12-25T03:23:46.644Z,10.50
2022-12-25T03:26:32.060Z,10.50
2022-12-25T03:28:58.833Z,10.50
2022-12-25T03:31:50.569Z,10.50
2022-12-25T03:34:57.513Z,10.50
2022-12-25T03:37:44.128Z,10.60
2022-12-25T03:40:51.211Z,10.50
2022-12-25T03:43:53.818Z,10.50
2022-12-25T03:46:42.780Z,10.50
2022-12-25T03:49:45.255Z,10.50
2022-12-25T03:52:35.048Z,10.50
2022-12-25T03:55:26.477Z,10.50
2022-12-25T03:58:11.929Z,10.50
2022-12-25T04:00:57.247Z,10.50
2022-12-25T04:03:42.930Z,10.40
2022-12-25T04:06:28.224Z,10.50
2022-12-25T04:09:13.872Z,10.40
2022-12-25T04:12:02.803Z,10.40
2022-12-25T04:14:48.716Z,10.40
2022-12-25T04:17:34.349Z,10.40
2022-12-25T04:20:19.803Z,10.50
2022-12-25T04:23:05.231Z,10.50
2022-12-25T04:25:50.396Z,10.50
2022-12-25T04:28:35.919Z,10.60
2022-12-25T04:31:22.039Z,10.60
2022-12-25T04:34:07.154Z,10.70
2022-12-25T04:36:33.829Z,10.70
2022-12-25T04:39:00.647Z,10.70
2022-12-25T04:41:27.401Z,10.70
2022-12-25T04:43:54.123Z,10.70
2022-12-25T04:46:20.865Z,10.70
2022-12-25T04:48:47.647Z,10.80
2022-12-25T04:51:22.793Z,10.70
2022-12-25T04:53:50.595Z,10.70
2022-12-25T04:56:18.655Z,10.70
2022-12-25T04:58:45.652Z,10.70
2022-12-25T05:01:12.780Z,10.70
2022-12-25T05:03:39.799Z,10.70
2022-12-25T05:06:07.008Z,10.60
2022-12-25T05:08:35.460Z,10.60
2022-12-25T05:11:07.230Z,10.60
2022-12-25T05:13:34.134Z,10.50
2022-12-25T05:16:04.031Z,10.50
2022-12-25T05:18:30.751Z,10.50
2022-12-25T05:20:57.479Z,10.40
2022-12-25T05:23:24.490Z,10.50
2022-12-25T05:25:51.356Z,10.50
2022-12-25T05:28:18.722Z,10.40
2022-12-25T05:30:45.482Z,10.40
2022-12-25T05:33:12.272Z,10.30
2022-12-25T05:35:39.862Z,10.30
2022-12-25T05:38:08.019Z,10.30
2022-12-25T05:40:38.803Z,10.30
2022-12-25T05:43:05.694Z,10.30
2022-12-25T05:45:32.424Z,10.30
2022-12-25T05:47:59.254Z,10.30
2022-12-25T05:50:26.025Z,10.30
2022-12-25T05:52:52.760Z,10.50
2022-12-25T05:55:19.469Z,10.40
2022-12-25T05:57:46.201Z,10.40
2022-12-25T06:00:13.189Z,10.50
2022-12-25T06:02:40.275Z,10.50
2022-12-25T06:05:07.633Z,10.50
2022-12-25T06:07:34.461Z,10.50
2022-12-25T06:10:01.187Z,10.50
2022-12-25T06:12:27.850Z,10.50
2022-12-25T06:14:54.541Z,10.40
2022-12-25T06:17:21.255Z,10.40
2022-12-25T06:19:47.943Z,10.40
2022-12-25T06:22:14.688Z,10.40
2022-12-25T06:24:41.557Z,10.40
2022-12-25T06:27:08.247Z,10.50
2022-12-25T06:29:37.795Z,10.50
2022-12-25T06:32:04.835Z,10.50
2022-12-25T06:34:31.619Z,10.50
2022-12-25T06:36:58.374Z,10.50
2022-12-25T06:39:25.643Z,10.40
2022-12-25T06:41:52.430Z,10.40
2022-12-25T06:44:19.158Z,10.40
2022-12-25T06:46:45.973Z,10.50
2022-12-25T06:49:12.739Z,10.40
2022-12-25T06:51:39.651Z,10.30
2022-12-25T06:54:06.571Z,10.30
2022-12-25T06:56:34.415Z,10.30
2022-12-25T06:59:04.138Z,10.30
2022-12-25T07:01:41.630Z,10.30
2022-12-25T07:04:32.988Z,10.40
2022-12-25T07:07:04.569Z,10.40
2022-12-25T07:09:35.672Z,10.30
2022-12-25T07:12:07.570Z,10.30
2022-12-25T07:14:34.535Z,10.30
2022-12-25T07:17:01.390Z,10.30
2022-12-25T07:19:28.198Z,10.30
2022-12-25T07:21:54.927Z,10.30
2022-12-25T07:24:23.195Z,10.30
2022-12-25T07:26:51.491Z,10.30
2022-12-25T07:29:19.632Z,10.30
2022-12-25T07:31:47.087Z,10.40
2022-12-25T07:34:13.926Z,10.40
2022-12-25T07:36:40.603Z,10.40
2022-12-25T07:39:07.381Z,10.30
2022-12-25T07:41:34.224Z,10.40
2022-12-25T07:44:01.058Z,10.40
2022-12-25T07:46:28.276Z,10.40
2022-12-25T07:48:55.044Z,10.40
2022-12-25T07:51:21.825Z,10.40
2022-12-25T07:53:48.583Z,10.40
2022-12-25T07:56:17.911Z,10.40
2022-12-25T07:58:45.206Z,10.40
2022-12-25T08:01:14.912Z,10.40
2022-12-25T08:03:41.862Z,10.40
2022-12-25T08:06:10.660Z,10.40
2022-12-25T08:08:38.353Z,10.40
2022-12-25T08:11:07.822Z,10.50
2022-12-25T08:13:35.047Z,10.50
2022-12-25T08:16:03.831Z,10.50
2022-12-25T08:18:31.784Z,10.50
2022-12-25T08:21:10.398Z,10.50
2022-12-25T08:23:40.186Z,10.40
2022-12-25T08:26:08.932Z,10.50
2022-12-25T08:28:36.217Z,10.40
2022-12-25T08:31:07.759Z,10.40
2022-12-25T08:33:34.883Z,10.40
2022-12-25T08:36:03.436Z,10.40
2022-12-25T08:38:31.269Z,10.40
2022-12-25T08:40:58.050Z,10.40
2022-12-25T08:43:24.763Z,10.40
2022-12-25T08:45:51.494Z,10.40
2022-12-25T08:48:18.572Z,10.40
2022-12-25T08:50:47.139Z,10.40
2022-12-25T08:53:14.523Z,10.40
2022-12-25T08:55:42.032Z,10.40
2022-12-25T08:58:08.832Z,10.40
2022-12-25T09:00:36.363Z,10.50
2022-12-25T09:03:04.423Z,10.50
2022-12-25T09:05:31.364Z,10.50
2022-12-25T09:07:58.065Z,10.50
2022-12-25T09:10:24.795Z,10.50
2022-12-25T09:12:51.633Z,10.50
2022-12-25T09:15:18.415Z,10.50
2022-12-25T09:17:45.507Z,10.60
2022-12-25T09:20:12.304Z,10.60
2022-12-25T09:22:39.032Z,10.60
2022-12-25T09:25:06.060Z,10.60
2022-12-25T09:27:32.744Z,10.60
2022-12-25T09:29:59.527Z,10.60
2022-12-25T09:32:26.335Z,10.50
2022-12-25T09:34:53.150Z,10.50
2022-12-25T09:37:19.840Z,10.60
2022-12-25T09:39:46.773Z,10.60
2022-12-25T09:42:23.854Z,10.60
2022-12-25T09:44:55.021Z,10.60
2022-12-25T09:47:29.041Z,10.70
2022-12-25T09:50:01.389Z,10.70
2022-12-25T09:52:52.084Z,10.70
2022-12-25T09:55:22.292Z,10.70
2022-12-25T09:57:57.946Z,10.80
2022-12-25T10:00:28.732Z,10.70
2022-12-25T10:03:16.242Z,10.80
2022-12-25T10:06:13.578Z,10.70
2022-12-25T10:09:15.818Z,10.80
2022-12-25T10:12:00.423Z,10.70
2022-12-25T10:14:38.900Z,10.70
2022-12-25T10:17:32.866Z,10.70
2022-12-25T10:20:21.205Z,10.70
2022-12-25T10:22:54.577Z,10.70
2022-12-25T10:25:24.149Z,10.80
2022-12-25T10:28:10.550Z,10.80
2022-12-25T10:30:37.685Z,10.70
2022-12-25T10:33:04.432Z,10.70
2022-12-25T10:35:32.797Z,10.70
2022-12-25T10:38:03.059Z,10.70
2022-12-25T10:40:38.807Z,10.70
2022-12-25T10:43:12.916Z,10.70
2022-12-25T10:45:47.437Z,10.70
2022-12-25T10:48:21.256Z,10.60
2022-12-25T10:50:48.642Z,10.70
2022-12-25T10:53:21.842Z,10.60
2022-12-25T10:56:03.247Z,10.60
2022-12-25T10:58:31.119Z,10.50
2022-12-25T11:01:08.310Z,10.60
2022-12-25T11:03:39.456Z,10.60
2022-12-25T11:06:18.607Z,10.60
2022-12-25T11:09:16.574Z,10.60
2022-12-25T11:11:43.351Z,10.60
2022-12-25T11:14:18.246Z,10.50
2022-12-25T11:16:45.130Z,10.50
2022-12-25T11:19:34.685Z,10.50
2022-12-25T11:22:03.840Z,10.50
2022-12-25T11:24:34.990Z,10.50
2022-12-25T11:27:06.417Z,10.50
2022-12-25T11:29:52.320Z,10.50
2022-12-25T11:32:30.542Z,10.60
2022-12-25T11:34:58.784Z,10.70
2022-12-25T11:37:29.593Z,10.70
2022-12-25T11:39:56.398Z,10.70
2022-12-25T11:42:34.986Z,10.80
2022-12-25T11:45:08.686Z,10.70
2022-12-25T11:47:44.971Z,10.80
2022-12-25T11:50:20.408Z,10.80
2022-12-25T11:52:48.196Z,10.70
2022-12-25T11:55:44.499Z,10.80
2022-12-25T11:58:50.349Z,10.80
2022-12-25T12:01:52.152Z,10.80
2022-12-25T12:04:29.435Z,10.80
2022-12-25T12:07:27.630Z,10.80
2022-12-25T12:10:19.256Z,10.90
2022-12-25T12:13:10.213Z,10.90
2022-12-25T12:15:43.869Z,10.90
2022-12-25T12:18:28.883Z,11.00
2022-12-25T12:21:05.692Z,11.10
2022-12-25T12:23:48.948Z,11.10
2022-12-25T12:26:30.077Z,11.10
2022-12-25T12:28:59.833Z,11.10
2022-12-25T12:31:39.244Z,11.20
2022-12-25T12:34:07.421Z,11.10
2022-12-25T12:36:36.928Z,11.20
2022-12-25T12:39:05.992Z,11.30
2022-12-25T12:41:48.334Z,11.30
2022-12-25T12:44:17.385Z,11.40
2022-12-25T12:47:27.820Z,11.40
2022-12-25T12:49:59.340Z,11.40
2022-12-25T12:52:36.384Z,11.40
2022-12-25T12:55:05.256Z,11.50
2022-12-25T12:57:39.197Z,11.50
2022-12-25T13:00:15.621Z,11.50
2022-12-25T13:03:13.580Z,11.50
2022-12-25T13:05:52.505Z,11.60
2022-12-25T13:08:44.702Z,11.60
2022-12-25T13:11:27.969Z,11.60
2022-12-25T13:13:56.948Z,11.60
2022-12-25T13:16:39.350Z,11.70
2022-12-25T13:19:11.170Z,11.70
2022-12-25T13:21:38.230Z,11.70
2022-12-25T13:24:17.895Z,11.70
2022-12-25T13:26:44.701Z,11.70
2022-12-25T13:29:31.065Z,11.80
2022-12-25T13:31:59.600Z,11.80
2022-12-25T13:34:32.275Z,11.80
2022-12-25T13:37:05.938Z,11.90
2022-12-25T13:39:35.883Z,11.90
2022-12-25T13:42:07.002Z,11.90
2022-12-25T13:45:00.039Z,11.90
2022-12-25T13:47:31.745Z,11.90
2022-12-25T13:50:01.152Z,11.90
2022-12-25T13:52:35.891Z,11.90
2022-12-25T13:55:11.074Z,11.90
2022-12-25T13:57:59.332Z,12.00
2022-12-25T14:00:36.432Z,12.00
2022-12-25T14:03:07.538Z,11.90
2022-12-25T14:05:42.795Z,11.90
2022-12-25T14:08:20.308Z,12.00
2022-12-25T14:10:51.105Z,12.00
2022-12-25T14:13:20.970Z,12.00
2022-12-25T14:15:50.056Z,12.00
2022-12-25T14:18:22.502Z,12.00
2022-12-25T14:21:10.668Z,12.00
2022-12-25T14:23:48.846Z,12.10
2022-12-25T14:26:28.608Z,12.00
2022-12-25T14:29:15.723Z,12.10
2022-12-25T14:31:45.131Z,12.10
2022-12-25T14:34:18.504Z,12.10
2022-12-25T14:36:46.124Z,12.00
2022-12-25T14:39:38.752Z,12.10
2022-12-25T14:42:17.022Z,12.10
2022-12-25T14:44:43.719Z,12.00
2022-12-25T14:47:18.870Z,12.10
2022-12-25T14:49:46.712Z,12.10
2022-12-25T14:52:24.847Z,12.10
2022-12-25T14:54:56.671Z,12.10
2022-12-25T14:57:47.048Z,12.10
2022-12-25T15:00:32.001Z,12.10
2022-12-25T15:03:00.665Z,12.10
2022-12-25T15:05:29.341Z,12.20
2022-12-25T15:08:12.408Z,12.20
2022-12-25T15:13:27.963Z,12.20
2022-12-25T15:16:12.406Z,12.20
2022-12-25T15:18:42.293Z,12.20
2022-12-25T15:21:30.310Z,12.20
2022-12-25T15:23:58.920Z,12.20
2022-12-25T15:26:27.378Z,12.20
2022-12-25T15:28:54.096Z,12.20
2022-12-25T15:31:25.135Z,12.20
2022-12-25T15:33:53.597Z,12.10
2022-12-25T15:36:20.603Z,12.20
2022-12-25T15:38:47.404Z,12.20
2022-12-25T15:41:50.723Z,12.20
2022-12-25T15:44:17.733Z,12.20
2022-12-25T15:46:46.017Z,12.20
2022-12-25T15:49:14.247Z,12.20
2022-12-25T15:51:42.187Z,12.20
2022-12-25T15:54:09.999Z,12.30
2022-12-25T15:56:49.972Z,12.30
2022-12-25T15:59:18.282Z,12.30
2022-12-25T16:01:52.239Z,12.30
2022-12-25T16:04:20.101Z,12.30
2022-12-25T16:06:47.559Z,12.30
2022-12-25T16:09:15.891Z,12.30
2022-12-25T16:11:43.478Z,12.30
2022-12-25T16:14:10.634Z,12.30
2022-12-25T16:16:37.668Z,12.40
2022-12-25T16:19:04.855Z,12.40
2022-12-25T16:21:39.237Z,12.40
2022-12-25T16:24:06.623Z,12.50
2022-12-25T16:26:34.269Z,12.50
2022-12-25T16:29:06.941Z,12.50
2022-12-25T16:31:35.099Z,12.50
2022-12-25T16:34:02.122Z,12.60
2022-12-25T16:36:28.919Z,12.60
2022-12-25T16:38:55.712Z,12.60
2022-12-25T16:41:22.543Z,12.60
2022-12-25T16:43:49.498Z,12.60
2022-12-25T16:46:19.431Z,12.60
2022-12-25T16:48:46.219Z,12.60
2022-12-25T16:51:15.591Z,12.60
2022-12-25T16:53:42.707Z,12.60
2022-12-25T16:56:11.869Z,12.60
2022-12-25T16:58:38.608Z,12.60
2022-12-25T17:01:10.968Z,12.60
2022-12-25T17:03:38.994Z,12.60
2022-12-25T17:06:16.843Z,12.70
2022-12-25T17:08:44.215Z,12.70
2022-12-25T17:11:11.764Z,12.70
2022-12-25T17:13:38.934Z,12.70
2022-12-25T17:16:17.986Z,12.70
2022-12-25T17:18:45.819Z,12.70
2022-12-25T17:21:14.763Z,12.70
2022-12-25T17:23:42.129Z,12.80
2022-12-25T17:26:09.165Z,12.80
2022-12-25T17:28:36.320Z,12.80
2022-12-25T17:31:05.460Z,12.90
2022-12-25T17:33:34.903Z,12.90
2022-12-25T17:36:06.589Z,13.00
2022-12-25T17:38:34.686Z,13.00
2022-12-25T17:41:05.276Z,13.00
2022-12-25T17:43:33.655Z,13.10
2022-12-25T17:46:08.200Z,13.10
2022-12-25T17:48:36.229Z,13.10
2022-12-25T17:51:08.368Z,13.10
2022-12-25T17:53:36.423Z,13.10
2022-12-25T17:56:03.496Z,13.10
2022-12-25T17:58:30.396Z,13.10
2022-12-25T18:00:57.465Z,13.10
2022-12-25T18:03:24.413Z,13.20
2022-12-25T18:05:51.317Z,13.10
2022-12-25T18:08:18.133Z,13.10
2022-12-25T18:10:44.914Z,13.10
2022-12-25T18:13:12.609Z,13.10
2022-12-25T18:15:41.341Z,13.10
2022-12-25T18:18:08.743Z,13.10
2022-12-25T18:20:40.232Z,13.10
2022-12-25T18:23:08.054Z,13.20
2022-12-25T18:25:34.943Z,13.10
2022-12-25T18:28:02.815Z,13.10
2022-12-25T18:30:29.750Z,13.10
2022-12-25T18:32:56.550Z,13.00
2022-12-25T18:35:29.029Z,13.00
2022-12-25T18:37:56.247Z,13.00
2022-12-25T18:40:23.416Z,13.00
2022-12-25T18:42:57.833Z,12.90
2022-12-25T18:45:29.566Z,12.90
2022-12-25T18:47:56.427Z,12.90
2022-12-25T18:50:23.569Z,12.80
2022-12-25T18:52:51.702Z,12.90
2022-12-25T18:55:18.957Z,12.90
2022-12-25T18:57:45.741Z,12.90
2022-12-25T19:00:12.818Z,12.90
2022-12-25T19:02:39.854Z,12.90
2022-12-25T19:05:07.702Z,12.90
2022-12-25T19:07:34.574Z,13.00
2022-12-25T19:10:01.339Z,13.10
2022-12-25T19:12:28.136Z,13.20
2022-12-25T19:14:54.938Z,13.30
2022-12-25T19:17:23.435Z,13.30
2022-12-25T19:19:56.691Z,13.30
2022-12-25T19:22:23.815Z,13.30
2022-12-25T19:24:50.877Z,13.30
2022-12-25T19:27:17.718Z,13.40
2022-12-25T19:29:44.536Z,13.40
2022-12-25T19:32:11.297Z,13.40
2022-12-25T19:34:38.183Z,13.40
2022-12-25T19:37:05.932Z,13.50
2022-12-25T19:39:32.740Z,13.50
2022-12-25T19:41:59.521Z,13.50
2022-12-25T19:44:26.579Z,13.50
2022-12-25T19:46:53.490Z,13.50
2022-12-25T19:49:20.487Z,13.50
2022-12-25T19:51:47.343Z,13.50
2022-12-25T19:54:15.990Z,13.50
2022-12-25T19:56:43.214Z,13.50
2022-12-25T19:59:12.348Z,13.50
2022-12-25T20:01:39.369Z,13.50
2022-12-25T20:04:10.499Z,13.50
2022-12-25T20:06:40.766Z,13.50
2022-12-25T20:09:12.287Z,13.50
2022-12-25T20:11:40.559Z,13.50
2022-12-25T20:14:08.991Z,13.40
2022-12-25T20:16:39.995Z,13.40
2022-12-25T20:19:07.380Z,13.40
2022-12-25T20:21:34.140Z,13.40
2022-12-25T20:24:01.227Z,13.30
2022-12-25T20:26:30.732Z,13.30
2022-12-25T20:28:58.804Z,13.20
2022-12-25T20:31:31.346Z,13.20
2022-12-25T20:34:00.855Z,13.20
2022-12-25T20:36:32.764Z,13.20
2022-12-25T20:39:01.295Z,13.10
2022-12-25T20:41:29.367Z,13.00
2022-12-25T20:43:57.501Z,12.90
2022-12-25T20:46:25.296Z,12.90
2022-12-25T20:48:52.893Z,12.80
2022-12-25T20:51:22.653Z,12.80
2022-12-25T20:53:50.103Z,12.80
2022-12-25T20:56:19.493Z,12.80
2022-12-25T20:58:46.480Z,12.80
2022-12-25T21:01:16.060Z,12.80
2022-12-25T21:03:43.649Z,12.80
2022-12-25T21:06:11.557Z,12.90
2022-12-25T21:08:39.260Z,12.90
2022-12-25T21:11:06.553Z,13.00
2022-12-25T21:13:35.775Z,13.00
2022-12-25T21:16:06.179Z,13.00
2022-12-25T21:18:33.549Z,13.10
2022-12-25T21:21:05.518Z,13.10
2022-12-25T21:23:33.274Z,13.10
2022-12-25T21:26:00.173Z,13.10
2022-12-25T21:28:27.161Z,13.10
2022-12-25T21:30:53.922Z,13.20
2022-12-25T21:33:39.223Z,13.20
2022-12-25T21:36:10.668Z,13.20
2022-12-25T21:38:38.863Z,13.20
2022-12-25T21:41:10.727Z,13.20
2022-12-25T21:43:39.075Z,13.30
2022-12-25T21:46:08.233Z,13.30
2022-12-25T21:48:36.755Z,13.30
2022-12-25T21:51:24.649Z,13.30
2022-12-25T21:53:51.387Z,13.30
2022-12-25T21:56:18.518Z,13.30
2022-12-25T21:58:45.271Z,13.30
2022-12-25T22:01:14.303Z,13.30
2022-12-25T22:03:41.168Z,13.30
2022-12-25T22:06:26.691Z,13.30
2022-12-25T22:08:53.674Z,13.30
2022-12-25T22:11:39.189Z,13.40
2022-12-25T22:14:51.839Z,13.30
2022-12-25T22:17:30.204Z,13.40
2022-12-25T22:19:57.482Z,13.40
2022-12-25T22:22:27.614Z,13.40
2022-12-25T22:24:57.202Z,13.40
2022-12-25T22:27:24.783Z,13.50
2022-12-25T22:29:52.098Z,13.60
2022-12-25T22:32:19.352Z,13.50
2022-12-25T22:34:46.125Z,13.60
2022-12-25T22:37:18.378Z,13.60
2022-12-25T22:39:45.400Z,13.60
2022-12-25T22:42:12.670Z,13.70
2022-12-25T22:44:39.696Z,13.70
2022-12-25T22:47:06.619Z,13.70
2022-12-25T22:49:33.468Z,13.70
2022-12-25T22:52:00.227Z,13.80
2022-12-25T22:54:30.448Z,13.80
2022-12-25T22:56:58.248Z,13.80
2022-12-25T22:59:25.887Z,13.90
2022-12-25T23:01:53.097Z,13.80
2022-12-25T23:04:19.936Z,13.80
2022-12-25T23:06:46.779Z,13.80
2022-12-25T23:09:22.127Z,13.80
2022-12-25T23:11:51.048Z,13.80
2022-12-25T23:14:36.230Z,13.80
2022-12-25T23:17:03.053Z,13.80
2022-12-25T23:19:48.588Z,13.80
2022-12-25T23:22:34.343Z,13.70
2022-12-25T23:25:19.790Z,13.70
2022-12-25T23:27:46.546Z,13.70
2022-12-25T23:30:15.839Z,13.70
2022-12-25T23:32:43.794Z,13.70
2022-12-25T23:35:11.861Z,13.70
2022-12-25T23:37:38.546Z,13.70
2022-12-25T23:40:05.884Z,13.70
2022-12-25T23:42:32.676Z,13.70
2022-12-25T23:44:59.359Z,13.70
2022-12-25T23:47:26.126Z,13.70
2022-12-25T23:49:52.929Z,13.70
2022-12-25T23:52:19.639Z,13.70
2022-12-25T23:54:46.307Z,13.70
2022-12-25T23:57:13.055Z,13.70
2022-12-25T23:59:39.750Z,13.70
